Time;durP1;ratioP1;P1;durP2;ratioP2;P2;SDS_P1;SDS_P2;PMS_P1;PMS_P2;Temp;Humidity;BMP_temperature;BMP_pressure;BME280_temperature;BME280_humidity;BME280_pressure;Samples;Min_cycle;Max_cycle;Signal;HPM_P1;HPM_P2
2023/08/08 00:02:06;;;;;;;7.50;2.55;;;;;;;16.37;100.00;101226.13;5095111;28;20032;-54
2023/08/08 00:04:31;;;;;;;7.15;2.35;;;;;;;16.81;100.00;101304.47;5095019;28;20028;-53
2023/08/08 00:06:57;;;;;;;4.97;2.58;;;;;;;16.36;100.00;101226.19;5093035;28;20028;-58
2023/08/08 00:09:22;;;;;;;6.05;2.50;;;;;;;16.55;100.00;101259.75;5094697;28;20048;-53
2023/08/08 00:11:48;;;;;;;6.50;2.38;;;;;;;16.41;100.00;101237.41;5094579;28;20119;-55
2023/08/08 00:14:14;;;;;;;7.95;2.42;;;;;;;16.86;100.00;101315.75;5094998;28;20143;-50
2023/08/08 00:16:39;;;;;;;7.30;2.22;;;;;;;16.88;100.00;101324.50;5094815;28;20534;-52
2023/08/08 00:19:04;;;;;;;6.13;2.47;;;;;;;16.87;100.00;101319.25;5094378;28;20036;-56
2023/08/08 00:21:30;;;;;;;7.15;2.65;;;;;;;16.81;100.00;101312.44;5094569;28;20121;-57
2023/08/08 00:23:55;;;;;;;5.15;1.98;;;;;;;16.30;100.00;101244.16;5094778;28;20038;-54
2023/08/08 00:26:20;;;;;;;5.20;2.28;;;;;;;16.73;100.00;101319.09;5094245;28;20044;-54
2023/08/08 00:28:46;;;;;;;5.75;2.08;;;;;;;16.59;100.00;101308.28;5093894;28;20036;-54
2023/08/08 00:31:11;;;;;;;8.38;2.22;;;;;;;16.59;100.00;101317.13;5093521;28;20060;-52
2023/08/08 00:33:36;;;;;;;3.67;1.92;;;;;;;16.58;100.00;101319.88;5094394;28;20032;-50
2023/08/08 00:36:02;;;;;;;2.88;1.60;;;;;;;16.30;100.00;101283.13;5093166;28;20036;-51
2023/08/08 00:38:27;;;;;;;3.38;1.80;;;;;;;16.35;100.00;101294.38;5076522;28;20036;-50
2023/08/08 00:40:52;;;;;;;4.30;1.55;;;;;;;16.11;100.00;101264.56;5075772;28;20053;-51
2023/08/08 00:43:18;;;;;;;4.40;1.90;;;;;;;16.38;100.00;101331.44;5094274;28;20371;-57
2023/08/08 00:45:44;;;;;;;4.70;1.90;;;;;;;16.32;100.00;101321.09;5094482;28;20036;-51
2023/08/08 00:48:09;;;;;;;5.55;1.55;;;;;;;15.89;100.00;101252.41;5094097;28;20525;-52
2023/08/08 00:50:36;;;;;;;3.65;1.73;;;;;;;16.14;100.00;101314.88;5075864;28;20028;-55
2023/08/08 00:53:03;;;;;;;5.78;1.83;;;;;;;15.98;100.00;101290.00;5094247;28;20054;-54
2023/08/08 00:55:28;;;;;;;2.50;1.58;;;;;;;15.56;100.00;101236.25;5076200;28;20025;-56
2023/08/08 00:57:54;;;;;;;4.22;2.35;;;;;;;15.79;100.00;101289.13;5092014;28;20104;-52
2023/08/08 01:00:19;;;;;;;4.57;1.90;;;;;;;15.84;100.00;101296.88;5093765;28;20032;-50
2023/08/08 01:02:44;;;;;;;3.38;1.70;;;;;;;15.89;100.00;101310.81;5076108;28;20035;-55
2023/08/08 01:05:10;;;;;;;5.28;1.75;;;;;;;15.39;100.00;101228.19;5075771;28;20047;-55
2023/08/08 01:08:01;;;;;;;3.08;1.70;;;;;;;15.47;100.00;101249.97;5093664;28;20024;-52
2023/08/08 01:10:30;;;;;;;4.32;2.10;;;;;;;15.41;100.00;101226.34;5093846;28;20024;-53
2023/08/08 01:12:57;;;;;;;3.92;1.52;;;;;;;15.71;100.00;101280.66;5058217;28;20059;-50
2023/08/08 01:15:23;;;;;;;4.25;1.90;;;;;;;15.92;100.00;101316.84;5075310;28;20027;-50
2023/08/08 01:17:48;;;;;;;4.82;2.67;;;;;;;15.56;100.00;101249.53;5075327;28;20036;-52
2023/08/08 01:20:16;;;;;;;2.40;1.70;;;;;;;15.90;100.00;101309.88;5093600;28;20043;-53
2023/08/08 01:23:16;;;;;;;2.97;1.42;;;;;;;15.89;100.00;101313.47;5076265;28;20047;-51
2023/08/08 01:25:42;;;;;;;5.63;1.95;;;;;;;15.80;100.00;101295.28;5075409;28;20036;-59
2023/08/08 01:28:08;;;;;;;5.28;1.65;;;;;;;15.82;100.00;101320.84;5074685;28;20048;-56
2023/08/08 01:30:33;;;;;;;2.55;1.27;;;;;;;15.67;100.00;101292.38;5093265;28;20051;-56
2023/08/08 01:32:59;;;;;;;2.92;1.70;;;;;;;15.72;100.00;101324.88;5093317;28;20459;-54
2023/08/08 01:35:26;;;;;;;4.55;1.95;;;;;;;15.53;100.00;101244.34;5093295;28;20036;-53
2023/08/08 01:37:54;;;;;;;4.15;1.38;;;;;;;15.35;100.00;101230.16;5075405;28;20487;-53
2023/08/08 01:40:20;;;;;;;3.78;1.60;;;;;;;15.84;100.00;101307.50;5075148;28;20028;-56
2023/08/08 01:42:47;;;;;;;7.40;2.13;;;;;;;15.56;100.00;101250.38;5074940;28;20139;-50
2023/08/08 01:45:13;;;;;;;5.50;1.90;;;;;;;15.85;100.00;101303.94;5074406;28;20036;-57
2023/08/08 01:47:38;;;;;;;4.32;1.70;;;;;;;15.56;100.00;101253.03;5074819;28;20039;-54
2023/08/08 01:50:05;;;;;;;6.05;1.67;;;;;;;15.47;100.00;101253.47;5093018;28;20040;-51
2023/08/08 01:52:31;;;;;;;4.70;1.80;;;;;;;15.74;100.00;101294.66;5092846;28;20101;-50
2023/08/08 01:54:56;;;;;;;3.10;1.67;;;;;;;15.90;100.00;101304.56;5092935;28;20032;-54
2023/08/08 01:57:22;;;;;;;2.85;1.60;;;;;;;15.48;100.00;101228.66;5092614;28;20036;-57
2023/08/08 01:59:48;;;;;;;7.10;2.40;;;;;;;15.90;100.00;101285.97;5074593;28;20032;-53
2023/08/08 02:02:13;;;;;;;4.20;1.77;;;;;;;15.52;100.00;101232.03;5092861;28;20032;-53
2023/08/08 02:04:39;;;;;;;6.45;2.15;;;;;;;15.19;100.00;101165.47;5092727;28;20067;-56
2023/08/08 02:07:04;;;;;;;5.88;1.65;;;;;;;15.57;100.00;101227.38;5074463;28;20463;-55
2023/08/08 02:09:29;;;;;;;5.78;1.88;;;;;;;15.94;100.00;101287.53;5074546;28;20048;-52
2023/08/08 02:11:54;;;;;;;7.38;2.00;;;;;;;15.78;100.00;101250.25;5091382;28;20036;-52
2023/08/08 02:14:20;;;;;;;4.78;1.55;;;;;;;15.78;100.00;101244.94;5092864;28;20086;-51
2023/08/08 02:16:45;;;;;;;4.80;2.20;;;;;;;15.97;100.00;101279.44;5073666;28;20102;-58
2023/08/08 02:19:11;;;;;;;7.63;1.92;;;;;;;15.89;100.00;101274.50;5091285;28;20039;-50
2023/08/08 02:21:36;;;;;;;3.78;1.70;;;;;;;15.84;100.00;101265.91;5092454;28;20495;-56
2023/08/08 02:24:01;;;;;;;4.45;1.58;;;;;;;15.51;100.00;101211.75;5092465;28;20093;-55
2023/08/08 02:26:27;;;;;;;3.97;1.88;;;;;;;15.51;100.00;101211.75;5073973;28;20043;-50
2023/08/08 02:28:52;;;;;;;8.25;2.50;;;;;;;15.57;100.00;101214.97;5074646;28;20071;-53
2023/08/08 02:31:20;;;;;;;5.22;1.63;;;;;;;15.53;100.00;101215.19;5074184;28;20059;-51
2023/08/08 02:33:49;;;;;;;6.53;1.73;;;;;;;15.99;100.00;101282.91;5080242;28;20032;-51
2023/08/08 02:36:14;;;;;;;5.15;2.13;;;;;;;15.99;100.00;101281.09;5091962;28;20387;-58
2023/08/08 02:38:39;;;;;;;5.47;2.10;;;;;;;16.02;100.00;101275.66;5092407;28;20042;-58
2023/08/08 02:41:05;;;;;;;4.90;1.63;;;;;;;15.81;100.00;101228.88;5092208;28;20039;-54
2023/08/08 02:43:30;;;;;;;4.32;1.85;;;;;;;15.63;100.00;101205.88;5074488;28;20085;-51
2023/08/08 02:45:55;;;;;;;4.32;1.58;;;;;;;15.98;100.00;101274.06;5092084;28;20372;-57
2023/08/08 02:48:20;;;;;;;2.72;1.25;;;;;;;15.97;100.00;101290.06;5092465;28;20036;-52
2023/08/08 02:50:46;;;;;;;8.50;1.80;;;;;;;15.91;100.00;101280.59;5091728;28;20036;-51
2023/08/08 02:53:11;;;;;;;6.97;2.40;;;;;;;15.39;100.00;101204.31;5074253;28;20044;-52
2023/08/08 02:55:37;;;;;;;3.17;1.30;;;;;;;15.74;100.00;101277.88;5091827;28;20478;-52
2023/08/08 02:58:02;;;;;;;4.40;1.20;;;;;;;15.76;100.00;101268.06;5092090;28;20119;-52
2023/08/08 03:00:27;;;;;;;6.30;2.30;;;;;;;15.29;100.00;101192.44;5095584;28;20039;-57
2023/08/08 03:02:53;;;;;;;3.58;1.42;;;;;;;15.21;100.00;101190.97;5096503;28;20042;-52
2023/08/08 03:05:18;;;;;;;4.10;1.33;;;;;;;15.64;100.00;101271.28;5095467;28;20414;-53
2023/08/08 03:07:43;;;;;;;4.88;1.45;;;;;;;15.21;100.00;101198.94;5096361;28;20059;-51
2023/08/08 03:10:09;;;;;;;5.47;1.65;;;;;;;15.27;100.00;101205.75;5095999;28;20024;-50
2023/08/08 03:12:34;;;;;;;5.57;1.85;;;;;;;15.68;100.00;101265.75;5096076;28;20028;-55
2023/08/08 03:15:00;;;;;;;5.90;1.60;;;;;;;15.69;100.00;101267.47;5077991;28;20376;-51
2023/08/08 03:17:25;;;;;;;4.45;1.70;;;;;;;15.70;100.00;101263.88;5077577;28;20032;-54
2023/08/08 03:19:50;;;;;;;3.35;1.23;;;;;;;15.70;100.00;101263.88;5095912;28;20046;-50
2023/08/08 03:22:16;;;;;;;5.90;1.67;;;;;;;15.71;100.00;101270.91;5095129;28;20122;-50
2023/08/08 03:24:41;;;;;;;5.40;1.58;;;;;;;15.70;100.00;101263.03;5096197;28;20072;-54
2023/08/08 03:27:06;;;;;;;3.70;1.55;;;;;;;15.73;100.00;101266.38;5077404;28;20089;-53
2023/08/08 03:29:32;;;;;;;9.45;1.70;;;;;;;15.76;100.00;101254.78;5095480;28;20032;-55
2023/08/08 03:31:57;;;;;;;3.88;1.38;;;;;;;15.74;100.00;101251.31;5095489;28;20060;-56
2023/08/08 03:34:22;;;;;;;5.50;1.65;;;;;;;15.77;100.00;101264.44;5095737;28;20032;-53
2023/08/08 03:36:47;;;;;;;4.90;1.48;;;;;;;15.67;100.00;101242.78;5095614;28;20311;-53
2023/08/08 03:39:13;;;;;;;4.13;1.10;;;;;;;15.62;100.00;101246.59;5095508;28;20043;-58
2023/08/08 03:41:38;;;;;;;5.18;1.60;;;;;;;15.32;100.00;101213.50;5095212;28;20031;-55
2023/08/08 03:44:04;;;;;;;6.65;1.55;;;;;;;15.31;100.00;101220.59;5094655;28;20043;-53
2023/08/08 03:46:29;;;;;;;3.45;1.70;;;;;;;15.36;100.00;101246.91;5095292;28;20031;-49
2023/08/08 03:48:55;;;;;;;5.22;1.80;;;;;;;14.92;100.00;101167.56;5077428;28;20039;-53
2023/08/08 03:51:20;;;;;;;3.08;1.30;;;;;;;14.88;100.00;101157.19;5094674;28;20398;-55
2023/08/08 03:53:45;;;;;;;2.13;1.00;;;;;;;15.36;100.00;101246.91;5095388;28;20479;-51
2023/08/08 03:56:11;;;;;;;3.67;1.27;;;;;;;15.35;100.00;101253.16;5095118;28;20119;-53
2023/08/08 03:58:37;;;;;;;1.83;1.30;;;;;;;15.23;100.00;101238.66;5095432;28;20064;-57
2023/08/08 04:01:03;;;;;;;3.60;1.00;;;;;;;15.30;100.00;101263.94;5094029;28;20046;-54
2023/08/08 04:03:28;;;;;;;1.95;0.93;;;;;;;15.27;100.00;101264.09;5095241;28;20119;-54
2023/08/08 04:05:53;;;;;;;3.65;1.27;;;;;;;15.17;100.00;101252.19;5095108;28;20066;-53
2023/08/08 04:08:19;;;;;;;2.28;1.20;;;;;;;14.74;100.00;101184.28;5095056;28;20047;-53
2023/08/08 04:10:46;;;;;;;1.67;1.05;;;;;;;15.03;100.00;101238.69;5094244;28;20078;-55
2023/08/08 04:13:12;;;;;;;1.40;1.15;;;;;;;15.14;100.00;101258.50;5095038;28;20032;-57
2023/08/08 04:15:37;;;;;;;5.65;1.23;;;;;;;14.36;100.00;101126.84;5094840;28;20115;-55
2023/08/08 04:18:03;;;;;;;3.63;1.05;;;;;;;15.03;100.00;101255.44;5096004;28;20039;-54
2023/08/08 04:20:28;;;;;;;2.92;1.20;;;;;;;14.98;100.00;101240.66;5115203;28;20034;-57
2023/08/08 04:22:54;;;;;;;5.20;1.20;;;;;;;14.99;100.00;101253.00;5096987;28;20496;-58
2023/08/08 04:25:21;;;;;;;5.03;1.00;;;;;;;14.96;100.00;101259.31;5114998;28;20458;-55
2023/08/08 04:27:46;;;;;;;5.00;1.63;;;;;;;15.00;100.00;101252.91;5115278;28;20035;-59
2023/08/08 04:30:11;;;;;;;4.15;1.23;;;;;;;15.02;100.00;101252.88;5115113;28;20451;-50
2023/08/08 04:32:37;;;;;;;4.50;1.50;;;;;;;15.07;100.00;101257.03;5104228;28;20209;-55
2023/08/08 04:35:02;;;;;;;3.42;1.10;;;;;;;15.08;100.00;101255.25;5094628;28;20039;-51
2023/08/08 04:37:27;;;;;;;1.85;0.88;;;;;;;14.63;100.00;101181.25;5094350;28;20047;-52
2023/08/08 04:39:53;;;;;;;3.95;1.25;;;;;;;15.01;100.00;101262.59;5094123;28;20392;-53
2023/08/08 04:42:18;;;;;;;3.00;1.60;;;;;;;14.94;100.00;101255.00;5094359;28;20032;-57
2023/08/08 04:44:43;;;;;;;3.90;1.38;;;;;;;14.75;100.00;101224.91;5094251;28;20159;-53
2023/08/08 04:47:09;;;;;;;2.55;0.95;;;;;;;14.89;100.00;101249.88;5094202;28;20119;-53
2023/08/08 04:49:34;;;;;;;3.78;1.30;;;;;;;15.00;100.00;101260.88;5110248;28;20126;-59
2023/08/08 04:51:59;;;;;;;2.83;1.00;;;;;;;15.08;100.00;101264.06;5114500;28;20031;-53
2023/08/08 04:54:25;;;;;;;5.10;1.40;;;;;;;15.13;100.00;101262.06;5114451;28;20043;-55
2023/08/08 04:56:50;;;;;;;2.80;1.17;;;;;;;15.20;100.00;101263.53;5114463;28;20094;-53
2023/08/08 04:59:15;;;;;;;2.78;1.00;;;;;;;15.21;100.00;101259.94;5114297;28;20036;-55
2023/08/08 05:01:41;;;;;;;2.40;1.00;;;;;;;15.26;100.00;101264.19;5114525;28;20031;-56
2023/08/08 05:04:06;;;;;;;4.25;1.30;;;;;;;15.30;100.00;101265.75;5114104;28;20040;-52
2023/08/08 05:06:32;;;;;;;4.65;1.27;;;;;;;14.93;100.00;101194.94;5104848;28;20057;-51
2023/08/08 05:08:57;;;;;;;3.67;1.20;;;;;;;15.37;100.00;101267.19;5093526;28;20032;-52
2023/08/08 05:11:23;;;;;;;5.20;1.38;;;;;;;15.34;100.00;101270.00;5093806;28;20036;-55
2023/08/08 05:13:48;;;;;;;5.00;1.20;;;;;;;14.90;100.00;101193.31;5075782;28;20407;-50
2023/08/08 05:16:14;;;;;;;1.80;1.02;;;;;;;14.88;100.00;101179.25;5093718;28;20088;-52
2023/08/08 05:18:40;;;;;;;5.28;1.10;;;;;;;15.30;100.00;101266.59;5093398;28;20036;-50
2023/08/08 05:21:05;;;;;;;3.03;1.20;;;;;;;15.03;100.00;101220.97;5093516;28;20035;-50
2023/08/08 05:23:31;;;;;;;3.28;1.00;;;;;;;15.16;100.00;101245.16;5091945;28;20452;-51
2023/08/08 05:25:56;;;;;;;3.13;1.38;;;;;;;14.96;100.00;101205.41;5093297;28;20040;-51
2023/08/08 05:28:21;;;;;;;3.10;1.10;;;;;;;14.92;100.00;101206.47;5093289;28;20036;-52
2023/08/08 05:30:47;;;;;;;5.03;1.30;;;;;;;15.31;100.00;101273.66;5093123;28;20028;-53
2023/08/08 05:33:13;;;;;;;2.92;0.85;;;;;;;15.30;100.00;101266.59;5093438;28;20047;-54
2023/08/08 05:35:38;;;;;;;3.00;0.90;;;;;;;15.34;100.00;101280.59;5093462;28;20082;-52
2023/08/08 05:38:03;;;;;;;3.72;0.95;;;;;;;14.95;100.00;101203.69;5093041;28;20401;-51
2023/08/08 05:40:29;;;;;;;3.22;0.80;;;;;;;15.28;100.00;101257.88;5092712;28;20392;-50
2023/08/08 05:42:54;;;;;;;3.20;0.75;;;;;;;15.19;100.00;101218.50;5075218;28;20148;-55
2023/08/08 05:45:20;;;;;;;4.68;1.05;;;;;;;15.60;100.00;101277.66;5093064;28;20426;-56
2023/08/08 05:47:45;;;;;;;2.97;0.90;;;;;;;15.66;100.00;101277.38;5093196;28;20085;-53
2023/08/08 05:50:10;;;;;;;3.70;1.00;;;;;;;15.36;100.00;101217.72;5092876;28;20089;-50
2023/08/08 05:52:35;;;;;;;2.58;0.98;;;;;;;15.70;100.00;101271.84;5092915;28;20088;-53
2023/08/08 05:55:01;;;;;;;1.92;0.70;;;;;;;15.33;100.00;101205.47;5092939;28;20089;-56
2023/08/08 05:57:26;;;;;;;1.63;0.82;;;;;;;15.84;100.00;101280.97;5092402;28;20034;-59
2023/08/08 05:59:52;;;;;;;2.45;1.00;;;;;;;15.40;100.00;101198.97;5093206;28;20499;-59
2023/08/08 06:02:17;;;;;;;3.72;1.02;;;;;;;15.97;100.00;101290.91;5092973;28;20065;-53
2023/08/08 06:04:43;;;;;;;5.28;1.25;;;;;;;15.62;100.00;101222.72;5092827;28;20028;-52
2023/08/08 06:07:08;;;;;;;3.83;1.00;;;;;;;16.08;100.00;101285.13;5074769;28;20531;-57
2023/08/08 06:09:34;;;;;;;3.95;1.20;;;;;;;16.16;100.00;101288.25;5092573;28;20047;-51
2023/08/08 06:11:59;;;;;;;5.47;1.30;;;;;;;16.32;100.00;101284.78;5092834;28;20116;-52
2023/08/08 06:14:24;;;;;;;2.22;0.70;;;;;;;16.00;100.00;101213.78;5092058;28;20115;-54
2023/08/08 06:16:50;;;;;;;3.95;0.90;;;;;;;16.49;100.00;101283.09;5092862;28;20119;-53
2023/08/08 06:19:15;;;;;;;5.07;1.35;;;;;;;16.23;100.00;101231.22;5092565;28;20107;-50
2023/08/08 06:21:41;;;;;;;3.08;0.93;;;;;;;16.28;100.00;101224.78;5074659;28;20155;-51
2023/08/08 06:24:06;;;;;;;4.75;1.08;;;;;;;16.69;100.00;101298.94;5092204;28;20050;-53
2023/08/08 06:26:33;;;;;;;3.72;0.70;;;;;;;16.64;100.00;101283.19;5092467;28;20044;-51
2023/08/08 06:28:59;;;;;;;5.95;0.75;;;;;;;16.55;100.00;101270.38;5092527;28;20078;-51
2023/08/08 06:31:24;;;;;;;3.70;0.85;;;;;;;16.70;100.00;101300.63;5073845;28;20447;-53
2023/08/08 06:33:49;;;;;;;2.08;0.90;;;;;;;16.75;100.00;101303.94;5092252;28;20097;-53
2023/08/08 06:36:15;;;;;;;2.88;0.70;;;;;;;16.80;100.00;101297.47;5092331;28;20437;-52
2023/08/08 06:38:40;;;;;;;2.08;0.70;;;;;;;16.89;100.00;101290.81;5092112;28;20471;-56
2023/08/08 06:41:05;;;;;;;2.20;0.60;;;;;;;16.62;100.00;101223.09;5092372;28;20040;-53
2023/08/08 06:43:31;;;;;;;3.03;1.05;;;;;;;16.70;100.00;101211.13;5092521;28;20123;-53
2023/08/08 06:45:57;;;;;;;2.55;0.95;;;;;;;17.39;100.00;101299.69;5092390;28;20411;-52
2023/08/08 06:48:22;;;;;;;1.65;0.60;;;;;;;17.14;100.00;101232.72;5091402;28;20042;-54
2023/08/08 06:50:47;;;;;;;2.97;1.30;;;;;;;17.61;100.00;101290.56;5073967;28;20111;-54
2023/08/08 06:53:13;;;;;;;2.78;1.02;;;;;;;17.67;100.00;101283.09;5091631;28;20036;-52
2023/08/08 06:55:38;;;;;;;4.57;1.27;;;;;;;17.28;100.00;101224.00;5092353;28;20201;-53
2023/08/08 06:58:03;;;;;;;3.03;0.70;;;;;;;17.50;100.00;101275.13;5092326;28;20123;-51
2023/08/08 07:00:29;;;;;;;3.53;1.00;;;;;;;17.14;100.00;101243.38;5091873;28;20129;-53
2023/08/08 07:02:54;;;;;;;3.25;0.77;;;;;;;17.33;100.00;101217.50;5091877;28;20032;-52
2023/08/08 07:05:20;;;;;;;2.42;0.77;;;;;;;17.37;100.00;101228.81;5091954;28;20140;-58
2023/08/08 07:07:46;;;;;;;4.03;0.98;;;;;;;17.97;100.00;101299.19;5073229;28;20156;-59
2023/08/08 07:10:12;;;;;;;1.58;0.60;;;;;;;17.97;100.00;101296.53;5091902;28;20044;-55
2023/08/08 07:12:38;;;;;;;2.17;0.70;;;;;;;18.09;100.00;101310.97;5092043;28;20032;-51
2023/08/08 07:15:05;;;;;;;1.50;0.57;;;;;;;17.92;100.00;101237.34;5074307;28;20364;-51
2023/08/08 07:17:31;;;;;;;3.53;1.08;;;;;;;18.40;100.00;101305.59;5094081;28;20044;-51
2023/08/08 07:19:56;;;;;;;2.75;1.00;;;;;;;18.61;100.00;101315.06;5112281;28;20081;-53
2023/08/08 07:22:22;;;;;;;1.02;0.50;;;;;;;18.83;100.00;101304.84;5112138;28;20027;-54
2023/08/08 07:24:47;;;;;;;2.90;0.68;;;;;;;19.00;100.00;101334.06;5094104;28;20119;-53
2023/08/08 07:27:13;;;;;;;1.88;0.75;;;;;;;18.81;100.00;101321.91;5112278;28;20032;-55
2023/08/08 07:29:38;;;;;;;2.80;0.75;;;;;;;18.70;100.00;101327.00;5085292;28;20039;-50
2023/08/08 07:32:04;;;;;;;2.58;0.77;;;;;;;18.97;100.00;101288.88;5091554;28;20060;-53
2023/08/08 07:34:30;;;;;;;2.38;0.60;;;;;;;19.38;100.00;101305.06;5091742;28;20047;-51
2023/08/08 07:36:56;;;;;;;1.15;0.50;;;;;;;19.15;100.00;101200.69;5091722;28;20340;-55
2023/08/08 07:39:21;;;;;;;1.38;0.70;;;;;;;19.80;100.00;101290.00;5057159;28;20032;-52
2023/08/08 07:41:46;;;;;;;2.30;0.57;;;;;;;19.76;100.00;101288.50;5091742;28;20039;-55
2023/08/08 07:44:12;;;;;;;2.65;0.70;;;;;;;19.78;100.00;101258.06;5091564;28;20036;-59
2023/08/08 07:46:37;;;;;;;2.67;0.93;;;;;;;20.07;100.00;101286.44;5093885;28;20039;-54
2023/08/08 07:49:04;;;;;;;1.42;1.00;;;;;;;19.63;100.00;101243.88;5095314;28;20128;-59
2023/08/08 07:51:30;;;;;;;2.03;0.80;;;;;;;19.61;100.00;101295.69;5095135;28;20086;-55
2023/08/08 07:53:56;;;;;;;1.08;0.47;;;;;;;19.38;100.00;101235.66;5094939;28;20035;-54
2023/08/08 07:56:21;;;;;;;3.08;0.75;;;;;;;20.01;100.00;101294.00;5076859;28;20051;-50
2023/08/08 07:58:46;;;;;;;2.35;0.70;;;;;;;20.31;100.00;101308.09;5095261;28;20039;-53
2023/08/08 08:01:13;;;;;;;1.42;0.55;;;;;;;20.62;100.00;101302.41;5095094;28;20040;-57
2023/08/08 08:03:39;;;;;;;2.35;0.93;;;;;;;20.51;100.00;101302.28;5093977;28;20180;-53
2023/08/08 08:06:04;;;;;;;1.92;0.95;;;;;;;20.21;100.00;101248.13;5100902;28;20088;-55
2023/08/08 08:08:29;;;;;;;1.75;0.60;;;;;;;20.56;100.00;101252.00;5114105;28;20032;-52
2023/08/08 08:10:55;;;;;;;1.38;0.80;;;;;;;21.09;100.00;101317.13;5115272;28;20493;-55
2023/08/08 08:13:20;;;;;;;0.90;0.60;;;;;;;21.23;100.00;101320.56;5114902;28;20032;-51
2023/08/08 08:15:45;;;;;;;2.53;0.70;;;;;;;21.22;100.00;101302.78;5115426;28;20043;-55
2023/08/08 08:18:12;;;;;;;5.75;0.90;;;;;;;21.41;100.00;101320.25;5115044;28;20035;-53
2023/08/08 08:20:37;;;;;;;1.67;0.73;;;;;;;21.28;100.00;101272.88;5115143;28;20077;-53
2023/08/08 08:23:03;;;;;;;1.02;0.85;;;;;;;21.52;100.00;101267.63;5096666;28;20032;-51
2023/08/08 08:25:28;;;;;;;2.55;1.08;;;;;;;21.55;100.00;101269.22;5110093;28;20395;-56
2023/08/08 08:27:54;;;;;;;3.05;0.98;;;;;;;21.61;100.00;101308.97;5094477;28;20115;-49
2023/08/08 08:30:25;;;;;;;2.58;0.98;;;;;;;21.18;100.00;101312.00;5076628;28;20039;-52
2023/08/08 08:32:50;;;;;;;1.83;0.80;;;;;;;21.30;100.00;101299.56;5093993;28;20062;-57
2023/08/08 08:35:16;;;;;;;1.67;0.77;;;;;;;21.34;100.00;101309.09;5111619;28;20036;-52
2023/08/08 08:37:41;;;;;;;3.83;1.20;;;;;;;21.11;100.00;101286.59;5115027;28;20035;-51
2023/08/08 08:40:08;;;;;;;2.20;0.90;;;;;;;21.09;100.00;101314.44;5115230;28;20100;-51
2023/08/08 08:42:34;;;;;;;2.05;1.13;;;;;;;20.94;100.00;101259.25;5114550;28;20031;-54
2023/08/08 08:45:02;;;;;;;3.00;0.80;;;;;;;21.37;100.00;101236.56;5096518;28;20035;-56
2023/08/08 08:47:29;;;;;;;2.20;0.70;;;;;;;21.41;100.00;101326.47;5096311;28;20379;-54
2023/08/08 08:49:55;;;;;;;1.27;0.57;;;;;;;20.72;100.00;101271.41;5104538;28;20081;-56
2023/08/08 08:52:20;;;;;;;2.67;0.90;;;;;;;20.86;100.00;101315.97;5094260;28;20040;-49
2023/08/08 08:54:46;;;;;;;3.85;1.20;;;;;;;20.73;100.00;101257.06;5075832;28;20028;-52
2023/08/08 08:57:12;;;;;;;1.60;0.77;;;;;;;21.39;100.00;101264.13;5092845;28;20044;-54
2023/08/08 08:59:37;;;;;;;1.88;0.90;;;;;;;22.10;100.00;101319.75;5076022;28;20028;-52
2023/08/08 09:02:03;;;;;;;4.82;1.55;;;;;;;22.02;100.00;101324.81;5094330;28;20520;-51
2023/08/08 09:04:30;;;;;;;1.52;0.63;;;;;;;21.71;100.00;101342.22;5075124;28;20088;-51
2023/08/08 09:06:55;;;;;;;1.75;0.80;;;;;;;20.80;100.00;101272.72;5094111;28;20040;-58
2023/08/08 09:09:22;;;;;;;2.28;0.43;;;;;;;21.34;100.00;101335.88;5075807;28;20039;-51
2023/08/08 09:11:49;;;;;;;1.45;0.68;;;;;;;21.63;100.00;101332.00;5093908;28;20471;-52
2023/08/08 09:14:19;;;;;;;1.45;0.98;;;;;;;22.04;100.00;101296.06;5075846;28;20027;-50
2023/08/08 09:16:46;;;;;;;1.98;0.70;;;;;;;22.65;100.00;101289.75;5075669;28;20028;-50
2023/08/08 09:19:12;;;;;;;2.42;0.70;;;;;;;22.68;100.00;101273.41;5074877;28;20545;-56
2023/08/08 09:21:37;;;;;;;0.93;0.82;;;;;;;22.58;100.00;101361.75;5093809;28;20050;-54
2023/08/08 09:24:03;;;;;;;3.05;0.82;;;;;;;22.22;100.00;101298.25;5093647;28;20127;-58
2023/08/08 09:26:28;;;;;;;1.60;0.68;;;;;;;22.44;100.00;101338.59;5093425;28;20071;-55
2023/08/08 09:28:54;;;;;;;2.45;0.65;;;;;;;22.32;100.00;101344.91;5093275;28;20120;-57
2023/08/08 09:31:19;;;;;;;1.63;0.73;;;;;;;22.17;100.00;101311.16;5092893;28;20063;-55
2023/08/08 09:33:45;;;;;;;2.38;1.05;;;;;;;22.83;100.00;101352.75;5075181;28;20062;-55
2023/08/08 09:36:15;;;;;;;1.30;0.80;;;;;;;23.06;100.00;101292.78;5075249;28;20094;-56
2023/08/08 09:38:40;;;;;;;1.55;0.85;;;;;;;22.98;100.00;101319.38;5074750;28;20063;-54
2023/08/08 09:41:06;;;;;;;2.67;0.75;;;;;;;22.97;100.00;101297.03;5075109;28;20504;-51
2023/08/08 09:43:31;;;;;;;1.98;0.70;;;;;;;23.37;100.00;101293.97;5075128;28;20075;-51
2023/08/08 09:45:57;;;;;;;2.35;0.90;;;;;;;23.97;100.00;101348.25;5075000;28;20115;-53
2023/08/08 09:48:23;;;;;;;2.08;0.82;;;;;;;23.40;100.00;101296.44;5093068;28;20043;-56
2023/08/08 09:50:50;;;;;;;1.52;0.80;;;;;;;23.87;100.00;101352.66;5092949;28;20036;-53
2023/08/08 09:53:16;;;;;;;2.00;0.60;;;;;;;23.47;100.00;101325.38;5093151;28;20129;-58
2023/08/08 09:55:42;;;;;;;2.75;1.02;;;;;;;23.58;100.00;101362.16;5074271;28;20040;-56
2023/08/08 09:58:08;;;;;;;2.55;1.00;;;;;;;22.60;100.00;101316.88;5074377;28;20147;-54
2023/08/08 10:00:34;;;;;;;2.83;0.77;;;;;;;22.92;100.00;101357.44;5092609;28;20047;-59
2023/08/08 10:03:00;;;;;;;2.25;1.17;;;;;;;23.17;100.00;101310.78;5075192;28;20050;-53
2023/08/08 10:05:26;;;;;;;1.23;0.60;;;;;;;23.62;100.00;101304.50;5074927;28;20074;-58
2023/08/08 10:07:53;;;;;;;2.00;0.77;;;;;;;23.89;100.00;101304.13;5092498;28;20082;-53
2023/08/08 10:10:18;;;;;;;1.45;1.00;;;;;;;24.63;100.00;101368.00;5074424;28;20399;-54
2023/08/08 10:12:44;;;;;;;0.68;0.57;;;;;;;24.22;100.00;101312.19;5073833;28;20040;-52
2023/08/08 10:15:10;;;;;;;2.00;0.60;;;;;;;24.00;100.00;101353.38;5092105;28;20032;-53
2023/08/08 10:17:39;;;;;;;1.25;0.75;;;;;;;23.57;100.00;101360.44;5092255;28;20047;-52
2023/08/08 10:20:11;;;;;;;2.47;0.65;;;;;;;22.85;100.00;101345.47;5092423;28;20080;-51
2023/08/08 10:22:38;;;;;;;1.30;0.68;;;;;;;22.82;100.00;101290.19;5075056;28;20032;-53
2023/08/08 10:25:04;;;;;;;1.17;0.50;;;;;;;23.31;100.00;101348.16;5074630;28;20036;-55
2023/08/08 10:27:34;;;;;;;0.98;0.80;;;;;;;23.02;100.00;101328.06;5092311;28;20097;-54
2023/08/08 10:30:10;;;;;;;2.45;0.90;;;;;;;23.29;100.00;101360.88;5091997;28;20035;-55
2023/08/08 10:32:48;;;;;;;2.50;0.70;;;;;;;23.92;100.00;101345.06;5091927;28;20056;-58
2023/08/08 10:35:14;;;;;;;2.63;0.90;;;;;;;25.06;100.00;101366.13;5091671;28;20552;-57
2023/08/08 10:37:39;;;;;;;1.83;0.85;;;;;;;25.71;100.00;101367.75;5092240;28;20066;-53
2023/08/08 10:40:06;;;;;;;4.07;1.20;;;;;;;25.23;100.00;101312.63;5073696;28;20032;-54
2023/08/08 10:42:33;;;;;;;2.33;1.25;;;;;;;24.90;100.00;101306.47;5092118;28;20475;-57
2023/08/08 10:45:00;;;;;;;3.80;0.90;;;;;;;25.73;100.00;101354.97;5092097;28;20483;-56
2023/08/08 10:47:31;;;;;;;2.45;0.68;;;;;;;25.62;100.00;101353.22;5092255;28;20039;-51
2023/08/08 10:50:11;;;;;;;1.63;0.77;;;;;;;25.49;100.00;101319.34;5092248;28;20122;-56
2023/08/08 10:52:52;;;;;;;1.20;0.73;;;;;;;26.66;100.00;101371.75;5091340;28;20468;-56
2023/08/08 10:55:22;;;;;;;1.98;0.73;;;;;;;26.49;100.00;101378.69;5092385;28;20072;-53
2023/08/08 10:58:10;;;;;;;0.77;0.50;;;;;;;25.05;100.00;101315.06;5092384;28;20032;-54
2023/08/08 11:00:39;;;;;;;1.05;0.50;;;;;;;24.62;100.00;101353.66;5092159;28;20391;-50
2023/08/08 11:03:04;;;;;;;3.97;0.63;;;;;;;23.75;100.00;101290.94;5073951;28;20391;-52
2023/08/08 11:05:31;;;;;;;3.05;1.10;;;;;;;23.94;100.00;101294.72;5090908;28;20126;-54
2023/08/08 11:07:58;;;;;;;2.17;0.82;;;;;;;24.05;100.00;101351.16;5091198;28;20482;-53
2023/08/08 11:10:23;;;;;;;2.63;0.82;;;;;;;24.32;100.00;101353.50;5092142;28;20082;-53
2023/08/08 11:13:03;;;;;;;4.13;0.90;;;;;;;24.43;100.00;101337.31;5091966;28;20433;-55